sim
Sign-in with your pilot id or email,
or register
Callsign
Passwort

Schedule Details

Flight Number: DLH2472
Departure: Munich Airport (EDDM) at 08:15
Arrival: London Heathrow Airport (EGLL) at 10:25
Route: Lufthansa Passenger Schedule. Enter filed route here before submitting Pirep.

Weather Information
Getting current METAR information for EDDM 210450Z 06002KT 9999 1500NE R08L/0900U BCFG NSC 07/07 Q1016 NOSIG
Getting current METAR information for EGLL 210450Z 04005KT 360V070 9999 FEW004 BKN005 14/14 Q1018 TEMPO BKN004

Schedule Frequency

Route Map